Time;durP1;ratioP1;P1;durP2;ratioP2;P2;SDS_P1;SDS_P2;PMS_P1;PMS_P2;Temp;Humidity;BMP_temperature;BMP_pressure;BME280_temperature;BME280_humidity;BME280_pressure;Samples;Min_cycle;Max_cycle;Signal;HPM_P1;HPM_P2
2023/09/27 00:01:59;;;;;;;;;;;;;;;-140.72;100.00;52847.44;4996195;28;19926;-70
2023/09/27 00:04:25;;;;;;;;;;;;;;;-140.72;100.00;52845.41;4994351;28;19922;-70
2023/09/27 00:06:50;;;;;;;;;;;;;;;-140.72;100.00;52829.19;4992585;28;19934;-70
2023/09/27 00:09:15;;;;;;;;;;;;;;;-140.72;100.00;52888.03;4995287;28;19930;-70
2023/09/27 00:11:41;;;;;;;;;;;;;;;-140.72;100.00;52831.19;4993848;28;19921;-70
2023/09/27 00:14:06;;;;;;;;;;;;;;;-140.72;100.00;52776.41;4996059;28;19930;-70
2023/09/27 00:16:32;;;;;;;;;;;;;;;-140.72;100.00;52800.75;4996790;28;19945;-70
2023/09/27 00:18:57;;;;;;;;;;;;;;;-140.72;100.00;52861.66;4993870;28;19945;-71
2023/09/27 00:21:23;;;;;;;;;;;;;;;-140.72;100.00;52819.03;4988050;28;19922;-70
2023/09/27 00:23:48;;;;;;;;;;;;;;;-140.72;100.00;52831.19;4994535;28;19922;-70
2023/09/27 00:26:13;;;;;;;;;;;;;;;-140.72;100.00;52875.84;4993193;28;19929;-70
2023/09/27 00:28:39;;;;;;;;;;;;;;;-140.72;100.00;52833.22;4996753;28;19922;-70
2023/09/27 00:31:04;;;;;;;;;;;;;;;-140.72;100.00;52825.13;4996345;28;20315;-70
2023/09/27 00:33:29;;;;;;;;;;;;;;;-140.72;100.00;52853.53;4992962;28;19957;-70
2023/09/27 00:35:54;;;;;;;;;;;;;;;-140.72;100.00;52831.19;4995087;28;19922;-71
2023/09/27 00:38:20;;;;;;;;;;;;;;;-140.72;100.00;52812.94;4994234;28;20295;-71
2023/09/27 00:40:48;;;;;;;;;;;;;;;-140.72;100.00;52835.25;4995957;28;19972;-70
2023/09/27 00:43:24;;;;;;;;;;;;;;;-140.72;100.00;52843.38;4993709;28;19968;-70
2023/09/27 00:45:49;;;;;;;;;;;;;;;-140.72;100.00;52847.44;4992407;28;19921;-70
2023/09/27 00:48:14;;;;;;;;;;;;;;;-140.72;100.00;52825.13;4992662;28;19980;-70
2023/09/27 00:50:51;;;;;;;;;;;;;;;-140.72;100.00;52837.28;4993112;28;20330;-70
2023/09/27 00:53:17;;;;;;;;;;;;;;;-140.72;100.00;52849.47;4987445;28;20423;-70
2023/09/27 00:55:42;;;;;;;;;;;;;;;-140.72;100.00;52851.50;4993319;28;20021;-70
2023/09/27 00:58:09;;;;;;;;;;;;;;;-140.72;100.00;52833.22;4989701;28;20387;-70
2023/09/27 01:00:35;;;;;;;;;;;;;;;-140.72;100.00;52845.41;4990556;28;19922;-70
2023/09/27 01:03:02;;;;;;;;;;;;;;;-140.72;100.00;52823.09;4993972;28;19933;-70
2023/09/27 01:05:27;;;;;;;;;;;;;;;-140.72;100.00;52843.38;4995359;28;19932;-70
2023/09/27 01:08:02;;;;;;;;;;;;;;;-140.72;100.00;52831.19;4995827;28;19922;-70
2023/09/27 01:10:28;;;;;;;;;;;;;;;-140.72;100.00;52819.03;4992006;28;19921;-70
2023/09/27 01:12:53;;;;;;;;;;;;;;;-140.72;100.00;52802.78;4994301;28;19921;-71
2023/09/27 01:15:18;;;;;;;;;;;;;;;-140.72;100.00;52806.84;4983499;28;19929;-70
2023/09/27 01:17:57;;;;;;;;;;;;;;;-140.72;100.00;52837.28;4994832;28;19989;-70
2023/09/27 01:20:23;;;;;;;;;;;;;;;-140.72;100.00;52855.56;4994344;28;19926;-70
2023/09/27 01:22:56;;;;;;;;;;;;;;;-140.72;100.00;52857.59;4992974;28;19928;-70
2023/09/27 01:25:24;;;;;;;;;;;;;;;-140.72;100.00;52845.41;4991878;28;21863;-70
2023/09/27 01:27:50;;;;;;;;;;;;;;;-140.72;100.00;52851.50;4991338;28;19968;-70
2023/09/27 01:30:15;;;;;;;;;;;;;;;-140.72;100.00;52808.88;4994192;28;19922;-70
2023/09/27 01:32:41;;;;;;;;;;;;;;;-140.72;100.00;52831.19;4994589;28;20276;-70
2023/09/27 01:35:07;;;;;;;;;;;;;;;-140.72;100.00;52821.06;4992252;28;20399;-70
2023/09/27 01:37:32;;;;;;;;;;;;;;;-140.72;100.00;52859.63;4994794;28;19944;-71
2023/09/27 01:39:58;;;;;;;;;;;;;;;-140.72;100.00;52841.34;4995442;28;20012;-71
2023/09/27 01:42:23;;;;;;;;;;;;;;;-140.72;100.00;52810.91;4992568;28;20046;-71
2023/09/27 01:44:49;;;;;;;;;;;;;;;-140.72;100.00;52853.53;4986713;28;19922;-70
2023/09/27 01:47:14;;;;;;;;;;;;;;;-140.72;100.00;52812.94;4989920;28;19926;-70
2023/09/27 01:49:39;;;;;;;;;;;;;;;-140.72;100.00;52853.53;4991819;28;19977;-70
2023/09/27 01:52:04;;;;;;;;;;;;;;;-140.72;100.00;52851.50;5001434;28;20380;-70
2023/09/27 01:54:30;;;;;;;;;;;;;;;-140.72;100.00;52857.59;4992250;28;19925;-70
2023/09/27 01:56:55;;;;;;;;;;;;;;;-140.72;100.00;52881.94;4994177;28;21787;-70
2023/09/27 01:59:20;;;;;;;;;;;;;;;-140.72;100.00;52837.28;4991380;28;19969;-70
2023/09/27 02:01:45;;;;;;;;;;;;;;;-140.72;100.00;52829.19;4991458;28;20402;-70
2023/09/27 02:04:10;;;;;;;;;;;;;;;-140.72;100.00;52861.66;4985498;28;19964;-70
2023/09/27 02:06:36;;;;;;;;;;;;;;;-140.72;100.00;52831.19;4994536;28;19949;-70
2023/09/27 02:09:01;;;;;;;;;;;;;;;-140.72;100.00;52879.91;4994722;28;19922;-70
2023/09/27 02:11:26;;;;;;;;;;;;;;;-140.72;100.00;52835.25;4991157;28;20004;-71
2023/09/27 02:13:51;;;;;;;;;;;;;;;-140.72;100.00;52847.44;4992033;28;19968;-70
2023/09/27 02:16:17;;;;;;;;;;;;;;;-140.72;100.00;52800.75;4991201;28;19928;-70
2023/09/27 02:18:42;;;;;;;;;;;;;;;-140.72;100.00;52845.41;4992610;28;19997;-70
2023/09/27 02:21:08;;;;;;;;;;;;;;;-140.72;100.00;52845.41;4994081;28;19936;-71
2023/09/27 02:23:33;;;;;;;;;;;;;;;-140.72;100.00;52879.91;4989737;28;19929;-70
2023/09/27 02:25:58;;;;;;;;;;;;;;;-140.72;100.00;52843.38;4994071;28;19921;-71
2023/09/27 02:28:24;;;;;;;;;;;;;;;-140.72;100.00;52851.50;4991810;28;19921;-70
2023/09/27 02:30:49;;;;;;;;;;;;;;;-140.72;100.00;52847.44;4992117;28;20017;-70
2023/09/27 02:33:16;;;;;;;;;;;;;;;-140.72;100.00;52831.19;4994044;28;20025;-70
2023/09/27 02:35:41;;;;;;;;;;;;;;;-140.72;100.00;52890.06;4992459;28;19925;-70
2023/09/27 02:38:06;;;;;;;;;;;;;;;-140.72;100.00;52855.56;4992321;28;19922;-70
2023/09/27 02:40:31;;;;;;;;;;;;;;;-140.72;100.00;52855.56;4991739;28;19929;-70
2023/09/27 02:42:57;;;;;;;;;;;;;;;-140.72;100.00;52833.22;4994020;28;19969;-70
2023/09/27 02:45:22;;;;;;;;;;;;;;;-140.72;100.00;52861.66;4990374;28;19922;-70
2023/09/27 02:47:47;;;;;;;;;;;;;;;-140.72;100.00;52853.53;4982629;28;19949;-70
2023/09/27 02:50:13;;;;;;;;;;;;;;;-140.72;100.00;52817.00;4993316;28;19932;-70
2023/09/27 02:52:43;;;;;;;;;;;;;;;-140.72;100.00;52845.41;4992854;28;19922;-71
2023/09/27 02:55:09;;;;;;;;;;;;;;;-140.72;100.00;52873.81;4998116;28;19922;-70
2023/09/27 02:57:34;;;;;;;;;;;;;;;-140.72;100.00;52873.81;4990338;28;19936;-70
2023/09/27 03:00:06;;;;;;;;;;;;;;;-140.72;100.00;52812.94;4993699;28;19979;-70
2023/09/27 03:02:34;;;;;;;;;;;;;;;-140.72;100.00;52849.47;5008922;28;19922;-70
2023/09/27 03:05:00;;;;;;;;;;;;;;;-140.72;100.00;52841.34;4990575;28;19922;-70
2023/09/27 03:07:25;;;;;;;;;;;;;;;-140.72;100.00;52865.69;4991186;28;19922;-70
2023/09/27 03:09:50;;;;;;;;;;;;;;;-140.72;100.00;52861.66;4990214;28;19933;-71
2023/09/27 03:12:15;;;;;;;;;;;;;;;-140.72;100.00;52855.56;4992680;28;19965;-70
2023/09/27 03:14:41;;;;;;;;;;;;;;;-140.72;100.00;52845.41;4990965;28;19965;-70
2023/09/27 03:17:07;;;;;;;;;;;;;;;-140.72;100.00;52865.69;4992003;28;19960;-70
2023/09/27 03:19:32;;;;;;;;;;;;;;;-140.72;100.00;52873.81;4988321;28;19969;-70
2023/09/27 03:21:57;;;;;;;;;;;;;;;-140.72;100.00;52845.41;5008182;28;19968;-70
2023/09/27 03:24:25;;;;;;;;;;;;;;;-140.72;100.00;52845.41;4991019;28;19930;-70
2023/09/27 03:26:50;;;;;;;;;;;;;;;-140.72;100.00;52817.00;4992563;28;19980;-71
2023/09/27 03:29:15;;;;;;;;;;;;;;;-140.72;100.00;52861.66;4992518;28;19921;-71
2023/09/27 03:31:41;;;;;;;;;;;;;;;-140.72;100.00;52867.72;4991792;28;19922;-71
2023/09/27 03:34:06;;;;;;;;;;;;;;;-140.72;100.00;52814.97;4989304;28;19929;-70
2023/09/27 03:36:31;;;;;;;;;;;;;;;-140.72;100.00;52863.66;4989373;28;19976;-70
2023/09/27 03:38:57;;;;;;;;;;;;;;;-140.72;100.00;52825.13;4992426;28;20244;-70
2023/09/27 03:41:22;;;;;;;;;;;;;;;-140.72;100.00;52853.53;4992404;28;19926;-70
2023/09/27 03:43:50;;;;;;;;;;;;;;;-140.72;100.00;52827.16;4991673;28;20342;-70
2023/09/27 03:46:15;;;;;;;;;;;;;;;-140.72;100.00;52855.56;4986949;28;20379;-70
2023/09/27 03:48:43;;;;;;;;;;;;;;;-140.72;100.00;52833.22;4990640;28;19930;-70
2023/09/27 03:51:08;;;;;;;;;;;;;;;-140.72;100.00;52837.28;4988750;28;19918;-70
2023/09/27 03:53:33;;;;;;;;;;;;;;;-140.72;100.00;52845.41;4991884;28;20311;-70
2023/09/27 03:55:59;;;;;;;;;;;;;;;-140.72;100.00;52869.75;4991654;28;20360;-71
2023/09/27 03:58:24;;;;;;;;;;;;;;;-140.72;100.00;52823.09;4991773;28;19918;-71
2023/09/27 04:00:49;;;;;;;;;;;;;;;-140.72;100.00;52865.69;4991849;28;20001;-71
2023/09/27 04:03:15;;;;;;;;;;;;;;;-140.72;100.00;52831.19;4989281;28;19922;-70
2023/09/27 04:05:41;;;;;;;;;;;;;;;-140.72;100.00;52861.66;4988431;28;19925;-71
2023/09/27 04:08:06;;;;;;;;;;;;;;;-140.72;100.00;52853.53;4993124;28;20390;-70
2023/09/27 04:10:41;;;;;;;;;;;;;;;-140.72;100.00;52851.50;4993309;28;20431;-72
2023/09/27 04:13:22;;;;;;;;;;;;;;;-140.72;100.00;52827.16;5010040;28;19925;-69
2023/09/27 04:16:09;;;;;;;;;;;;;;;-140.72;100.00;52841.34;5006252;28;19922;-72
2023/09/27 04:18:35;;;;;;;;;;;;;;;-140.72;100.00;52861.66;5007180;28;19922;-71
2023/09/27 04:21:05;;;;;;;;;;;;;;;-140.72;100.00;52843.38;4990776;28;19941;-69
2023/09/27 04:23:31;;;;;;;;;;;;;;;-140.72;100.00;52812.94;4992466;28;20303;-69
2023/09/27 04:25:56;;;;;;;;;;;;;;;-140.72;100.00;52835.25;4993072;28;19922;-71
2023/09/27 04:28:21;;;;;;;;;;;;;;;-140.72;100.00;52843.38;4991975;28;19929;-71
2023/09/27 04:30:46;;;;;;;;;;;;;;;-140.72;100.00;52831.19;4993159;28;19964;-71
2023/09/27 04:33:11;;;;;;;;;;;;;;;-140.72;100.00;52853.53;4987599;28;20049;-71
2023/09/27 04:35:37;;;;;;;;;;;;;;;-140.72;100.00;52792.66;4993555;28;20016;-71
2023/09/27 04:38:04;;;;;;;;;;;;;;;-140.72;100.00;52845.41;4995370;28;20359;-71
2023/09/27 04:40:29;;;;;;;;;;;;;;;-140.72;100.00;52837.28;4992612;28;20429;-71
2023/09/27 04:42:54;;;;;;;;;;;;;;;-140.72;100.00;52869.75;4984648;28;20048;-71
2023/09/27 04:45:19;;;;;;;;;;;;;;;-140.72;100.00;52829.19;4983774;28;20648;-72
2023/09/27 04:47:45;;;;;;;;;;;;;;;-140.72;100.00;52837.28;4996536;28;20392;-74
2023/09/27 04:50:10;;;;;;;;;;;;;;;-140.72;100.00;52841.34;4993388;28;20295;-70
2023/09/27 04:52:39;;;;;;;;;;;;;;;-140.72;100.00;52867.72;4990572;28;20294;-72
2023/09/27 04:55:05;;;;;;;;;;;;;;;-140.72;100.00;52855.56;4990757;28;19922;-71
2023/09/27 04:57:30;;;;;;;;;;;;;;;-140.72;100.00;52886.00;4990820;28;19934;-70
2023/09/27 04:59:55;;;;;;;;;;;;;;;-140.72;100.00;52845.41;4990071;28;19921;-70
2023/09/27 05:02:38;;;;;;;;;;;;;;;-140.72;100.00;52898.16;4990455;28;20012;-72
2023/09/27 05:05:04;;;;;;;;;;;;;;;-140.72;100.00;52859.63;4991446;28;19928;-71
2023/09/27 05:07:48;;;;;;;;;;;;;;;-140.72;100.00;52837.28;4987736;28;20280;-70
2023/09/27 05:10:13;;;;;;;;;;;;;;;-140.72;100.00;52865.69;4991029;28;20371;-71
2023/09/27 05:12:39;;;;;;;;;;;;;;;-140.72;100.00;52861.66;4989678;28;20012;-70
2023/09/27 05:15:05;;;;;;;;;;;;;;;-140.72;100.00;52827.16;4989010;28;19949;-71
2023/09/27 05:17:30;;;;;;;;;;;;;;;-140.72;100.00;52857.59;4993703;28;19930;-70
2023/09/27 05:19:55;;;;;;;;;;;;;;;-140.72;100.00;52863.66;4991090;28;19929;-70
2023/09/27 05:22:20;;;;;;;;;;;;;;;-140.72;100.00;52890.06;4993429;28;19922;-74
2023/09/27 05:24:49;;;;;;;;;;;;;;;-140.72;100.00;52865.69;4994244;28;19922;-73
2023/09/27 05:27:14;;;;;;;;;;;;;;;-140.72;100.00;52875.84;4991271;28;19922;-73
2023/09/27 05:29:57;;;;;;;;;;;;;;;-140.72;100.00;52823.09;4993817;28;19988;-74
2023/09/27 05:35:25;;;;;;;;;;;;;;;-140.72;100.00;52875.84;4991728;28;19933;-73
2023/09/27 05:37:50;;;;;;;;;;;;;;;-140.72;100.00;52804.81;4995285;28;19921;-74
2023/09/27 05:40:16;;;;;;;;;;;;;;;-140.72;100.00;52869.75;4995568;28;19921;-76
2023/09/27 05:42:42;;;;;;;;;;;;;;;-140.72;100.00;52835.25;4994810;28;20268;-74
2023/09/27 05:45:11;;;;;;;;;;;;;;;-140.72;100.00;52853.53;4988379;28;19922;-74
2023/09/27 05:48:05;;;;;;;;;;;;;;;-140.72;100.00;52817.00;4984067;28;19986;-73
2023/09/27 05:50:31;;;;;;;;;;;;;;;-140.72;100.00;52849.47;4991062;28;19926;-74
2023/09/27 05:52:56;;;;;;;;;;;;;;;-140.72;100.00;52879.91;4988043;28;19937;-74
2023/09/27 05:55:30;;;;;;;;;;;;;;;-140.72;100.00;52825.13;5007870;28;19929;-74
2023/09/27 05:57:55;;;;;;;;;;;;;;;-140.72;100.00;52833.22;4991863;28;20024;-74
2023/09/27 06:00:31;;;;;;;;;;;;;;;-140.72;100.00;52837.28;4989497;28;20435;-74
2023/09/27 06:02:56;;;;;;;;;;;;;;;-140.72;100.00;52800.75;4989654;28;20031;-74
2023/09/27 06:05:21;;;;;;;;;;;;;;;-140.72;100.00;52821.06;4993889;28;19922;-74
2023/09/27 06:07:47;;;;;;;;;;;;;;;-140.72;100.00;52812.94;4995172;28;19928;-71
2023/09/27 06:10:12;;;;;;;;;;;;;;;-140.72;100.00;52845.41;4995828;28;20395;-73
2023/09/27 06:12:38;;;;;;;;;;;;;;;-140.72;100.00;52833.22;4992455;28;19921;-73
2023/09/27 06:15:04;;;;;;;;;;;;;;;-140.72;100.00;52827.16;5004893;28;20839;-72
2023/09/27 06:17:37;;;;;;;;;;;;;;;-140.72;100.00;52817.00;4993613;28;19922;-71
2023/09/27 06:20:05;;;;;;;;;;;;;;;-140.72;100.00;52800.75;4994775;28;19973;-71
2023/09/27 06:25:23;;;;;;;;;;;;;;;-140.72;100.00;52845.41;4994465;28;19980;-71
2023/09/27 06:27:57;;;;;;;;;;;;;;;-140.72;100.00;52792.66;4994320;28;20385;-71
2023/09/27 06:30:23;;;;;;;;;;;;;;;-140.72;100.00;52792.66;4984581;28;19917;-71
2023/09/27 06:32:49;;;;;;;;;;;;;;;-140.72;100.00;52776.41;4984730;28;19989;-71
2023/09/27 06:35:14;;;;;;;;;;;;;;;-140.72;100.00;52837.28;4991537;28;19922;-71
2023/09/27 06:37:48;;;;;;;;;;;;;;;-140.72;100.00;52829.19;4986785;28;19984;-71
2023/09/27 06:40:24;;;;;;;;;;;;;;;-140.72;100.00;52821.06;4990323;28;19929;-72
2023/09/27 06:42:49;;;;;;;;;;;;;;;-140.72;100.00;52794.69;4993206;28;20012;-71
2023/09/27 06:45:15;;;;;;;;;;;;;;;-140.72;100.00;52798.72;4994287;28;20044;-71
2023/09/27 06:47:41;;;;;;;;;;;;;;;-140.72;100.00;52814.97;4986533;28;19933;-71
2023/09/27 06:50:08;;;;;;;;;;;;;;;-140.72;100.00;52796.72;4991849;28;20336;-72
2023/09/27 06:52:33;;;;;;;;;;;;;;;-140.72;100.00;52833.22;4989858;28;19918;-71
2023/09/27 06:55:06;;;;;;;;;;;;;;;-140.72;100.00;52796.72;4992274;28;20032;-71
2023/09/27 06:57:31;;;;;;;;;;;;;;;-140.72;100.00;52782.50;4992928;28;20008;-71
2023/09/27 06:59:56;;;;;;;;;;;;;;;-140.72;100.00;52792.66;4983038;28;20005;-71
2023/09/27 07:02:22;;;;;;;;;;;;;;;-140.72;100.00;52784.53;4979829;28;19953;-71
2023/09/27 07:05:11;;;;;;;;;;;;;;;-140.72;100.00;52766.25;4990929;28;19933;-71
2023/09/27 07:07:53;;;;;;;;;;;;;;;-140.72;100.00;52766.25;4986937;28;20008;-74
2023/09/27 07:10:18;;;;;;;;;;;;;;;-140.72;100.00;52792.66;4991987;28;19921;-83
2023/09/27 07:12:43;;;;;;;;;;;;;;;-140.72;100.00;52798.72;5002187;28;19918;-72
2023/09/27 07:15:13;;;;;;;;;;;;;;;-140.72;100.00;52780.47;4987848;28;19972;-72
2023/09/27 07:17:39;;;;;;;;;;;;;;;-140.72;100.00;52800.75;4993252;28;19922;-73
2023/09/27 07:20:26;;;;;;;;;;;;;;;-140.72;100.00;52778.44;4993249;28;19925;-73
2023/09/27 07:22:52;;;;;;;;;;;;;;;-140.72;100.00;52745.97;4992686;28;19918;-73
2023/09/27 07:25:19;;;;;;;;;;;;;;;-140.72;100.00;52782.50;4988758;28;19922;-73
2023/09/27 07:27:46;;;;;;;;;;;;;;;-140.72;100.00;52750.03;4992973;28;19976;-72
2023/09/27 07:30:11;;;;;;;;;;;;;;;-140.72;100.00;52705.38;4987015;28;19926;-72
2023/09/27 07:32:39;;;;;;;;;;;;;;;-140.72;100.00;52768.28;4983646;28;20376;-71
2023/09/27 07:35:09;;;;;;;;;;;;;;;-140.72;100.00;52786.56;4989023;28;19922;-71
2023/09/27 07:37:35;;;;;;;;;;;;;;;-140.72;100.00;52733.78;4997441;28;19922;-71
2023/09/27 07:40:00;;;;;;;;;;;;;;;-140.72;100.00;52752.06;4985762;28;19932;-72
2023/09/27 07:42:26;;;;;;;;;;;;;;;-140.72;100.00;52758.16;4990647;28;19921;-72
2023/09/27 07:44:51;;;;;;;;;;;;;;;-140.72;100.00;52711.47;4991532;28;20009;-72
2023/09/27 07:47:16;;;;;;;;;;;;;;;-140.72;100.00;52725.69;4990505;28;19929;-72
2023/09/27 07:49:42;;;;;;;;;;;;;;;-140.72;100.00;52697.28;4994152;28;19921;-72
2023/09/27 07:52:07;;;;;;;;;;;;;;;-140.72;100.00;52713.50;4989262;28;19928;-72
2023/09/27 07:54:33;;;;;;;;;;;;;;;-140.72;100.00;52697.28;4995420;28;20483;-72
2023/09/27 07:56:59;;;;;;;;;;;;;;;-140.72;100.00;52666.84;4994913;28;19921;-72
2023/09/27 07:59:25;;;;;;;;;;;;;;;-140.72;100.00;52697.28;4993610;28;20009;-73
2023/09/27 08:01:56;;;;;;;;;;;;;;;-140.72;100.00;52666.84;4993671;28;20037;-72
2023/09/27 08:04:21;;;;;;;;;;;;;;;-140.72;100.00;52679.00;4993699;28;19933;-74
2023/09/27 08:06:47;;;;;;;;;;;;;;;-140.72;100.00;52679.00;4995505;28;20368;-72
2023/09/27 08:09:15;;;;;;;;;;;;;;;-140.72;100.00;52683.06;4994588;28;19933;-72
2023/09/27 08:11:41;;;;;;;;;;;;;;;-140.72;100.00;52711.47;4995560;28;20383;-72
2023/09/27 08:14:08;;;;;;;;;;;;;;;-140.72;100.00;52707.41;4994432;28;19972;-72
2023/09/27 08:16:34;;;;;;;;;;;;;;;-140.72;100.00;52660.75;4994731;28;19932;-70
2023/09/27 08:18:59;;;;;;;;;;;;;;;-140.72;100.00;52681.03;4995941;28;19928;-73
2023/09/27 08:21:24;;;;;;;;;;;;;;;-140.72;100.00;52715.53;4990296;28;20024;-70
2023/09/27 08:23:52;;;;;;;;;;;;;;;-140.72;100.00;52666.84;4991194;28;19949;-72
2023/09/27 08:26:18;;;;;;;;;;;;;;;-140.72;100.00;52664.81;4993524;28;20338;-74
2023/09/27 08:28:43;;;;;;;;;;;;;;;-140.72;100.00;52687.13;4994835;28;20422;-73
2023/09/27 08:31:09;;;;;;;;;;;;;;;-140.72;100.00;52703.34;4990325;28;19944;-74
2023/09/27 08:33:34;;;;;;;;;;;;;;;-140.72;100.00;52695.25;4993895;28;19925;-74
2023/09/27 08:36:00;;;;;;;;;;;;;;;-140.72;100.00;52711.47;4988296;28;20063;-71
2023/09/27 08:38:25;;;;;;;;;;;;;;;-140.72;100.00;52719.59;4992512;28;19938;-76
2023/09/27 08:40:51;;;;;;;;;;;;;;;-140.72;100.00;52670.88;4992130;28;19976;-77
2023/09/27 08:43:17;;;;;;;;;;;;;;;-140.72;100.00;52693.22;5007675;28;19945;-74
2023/09/27 08:45:45;;;;;;;;;;;;;;;-140.72;100.00;52691.19;4986743;28;19929;-73
2023/09/27 08:48:13;;;;;;;;;;;;;;;-140.72;100.00;52674.94;4994047;28;19926;-73
2023/09/27 08:50:38;;;;;;;;;;;;;;;-140.72;100.00;52672.91;4992142;28;20372;-77
2023/09/27 08:53:04;;;;;;;;;;;;;;;-140.72;100.00;52670.88;4989035;28;19969;-74
2023/09/27 08:55:30;;;;;;;;;;;;;;;-140.72;100.00;52670.88;4989438;28;19922;-72
2023/09/27 08:57:55;;;;;;;;;;;;;;;-140.72;100.00;52695.25;4981090;28;19965;-71
2023/09/27 09:00:22;;;;;;;;;;;;;;;-140.72;100.00;52687.13;4994733;28;20391;-71
2023/09/27 09:02:49;;;;;;;;;;;;;;;-140.72;100.00;52652.63;4989932;28;19932;-72
2023/09/27 09:05:15;;;;;;;;;;;;;;;-140.72;100.00;52679.00;4991086;28;19980;-72
2023/09/27 09:07:40;;;;;;;;;;;;;;;-140.72;100.00;52666.84;4988160;28;19962;-72
2023/09/27 09:10:09;;;;;;;;;;;;;;;-140.72;100.00;52630.31;4987319;28;20380;-79
2023/09/27 09:12:35;;;;;;;;;;;;;;;-140.72;100.00;52652.63;4988895;28;19927;-76
2023/09/27 09:15:03;;;;;;;;;;;;;;;-140.72;100.00;52648.56;4987629;28;19930;-74
2023/09/27 09:17:35;;;;;;;;;;;;;;;-140.72;100.00;52630.31;4990129;28;19933;-79
2023/09/27 09:20:21;;;;;;;;;;;;;;;-140.72;100.00;52634.38;4989847;28;19930;-72
2023/09/27 09:22:49;;;;;;;;;;;;;;;-140.72;100.00;52610.00;4986797;28;20303;-73
2023/09/27 09:25:14;;;;;;;;;;;;;;;-140.72;100.00;52646.53;4988485;28;20392;-75
2023/09/27 09:27:40;;;;;;;;;;;;;;;-140.72;100.00;52646.53;4980529;28;20004;-72
2023/09/27 09:30:07;;;;;;;;;;;;;;;-140.72;100.00;52628.28;4988310;28;20418;-72
2023/09/27 09:32:32;;;;;;;;;;;;;;;-140.72;100.00;52589.72;4987187;28;19987;-72
2023/09/27 09:34:57;;;;;;;;;;;;;;;-140.72;100.00;52620.16;4985837;28;20435;-72
2023/09/27 09:37:23;;;;;;;;;;;;;;;-140.72;100.00;52589.72;4988767;28;20057;-72
2023/09/27 09:39:51;;;;;;;;;;;;;;;-140.72;100.00;52662.78;4987280;28;19932;-71
2023/09/27 09:42:31;;;;;;;;;;;;;;;-140.72;100.00;52593.78;4989317;28;20372;-72
2023/09/27 09:45:06;;;;;;;;;;;;;;;-140.72;100.00;52632.34;4988608;28;19922;-72
2023/09/27 09:47:32;;;;;;;;;;;;;;;-140.72;100.00;52603.94;4987741;28;19930;-72
2023/09/27 09:49:58;;;;;;;;;;;;;;;-140.72;100.00;52577.53;4987871;28;19930;-72
2023/09/27 09:52:26;;;;;;;;;;;;;;;-140.72;100.00;52595.81;4984780;28;19928;-72
2023/09/27 09:54:53;;;;;;;;;;;;;;;-140.72;100.00;52601.91;4988978;28;19929;-72
2023/09/27 09:57:19;;;;;;;;;;;;;;;-140.72;100.00;52575.50;4987570;28;20284;-73
2023/09/27 10:00:18;;;;;;;;;;;;;;;-140.72;100.00;52547.09;4987096;28;19922;-71
2023/09/27 10:02:47;;;;;;;;;;;;;;;-140.72;100.00;52593.78;4986625;28;19922;-74
2023/09/27 10:05:14;;;;;;;;;;;;;;;-140.72;100.00;52520.72;4987985;28;19951;-74
2023/09/27 10:07:40;;;;;;;;;;;;;;;-140.72;100.00;52587.69;4987716;28;19930;-73
2023/09/27 10:10:06;;;;;;;;;;;;;;;-140.72;100.00;52539.00;4989215;28;19930;-74
2023/09/27 10:12:32;;;;;;;;;;;;;;;-140.72;100.00;52577.53;4986797;28;20402;-71
2023/09/27 10:15:22;;;;;;;;;;;;;;;-140.72;100.00;52591.75;4979385;28;20347;-72
2023/09/27 10:17:47;;;;;;;;;;;;;;;-140.72;100.00;52601.91;4995009;28;19921;-70
2023/09/27 10:20:14;;;;;;;;;;;;;;;-140.72;100.00;52603.94;4994202;28;19928;-70
2023/09/27 10:22:40;;;;;;;;;;;;;;;-140.72;100.00;52605.94;4994900;28;19952;-70
2023/09/27 10:25:30;;;;;;;;;;;;;;;-140.72;100.00;52607.97;4992455;28;19917;-70
2023/09/27 10:28:01;;;;;;;;;;;;;;;-140.72;100.00;52581.59;4990457;28;20004;-71
2023/09/27 10:30:27;;;;;;;;;;;;;;;-140.72;100.00;52607.97;4993151;28;20392;-71
2023/09/27 10:33:11;;;;;;;;;;;;;;;-140.72;100.00;52561.31;5006944;28;19949;-70
2023/09/27 10:35:36;;;;;;;;;;;;;;;-140.72;100.00;52532.91;4990702;28;19918;-71
2023/09/27 10:38:08;;;;;;;;;;;;;;;-140.72;100.00;52528.84;4992459;28;20245;-71
2023/09/27 10:40:41;;;;;;;;;;;;;;;-140.72;100.00;52494.34;4993536;28;19921;-70
2023/09/27 10:43:07;;;;;;;;;;;;;;;-140.72;100.00;52476.09;4991394;28;20263;-72
2023/09/27 10:45:33;;;;;;;;;;;;;;;-140.72;100.00;52419.28;4992132;28;20412;-71
2023/09/27 10:48:18;;;;;;;;;;;;;;;-140.72;100.00;52419.28;4987016;28;20353;-72
2023/09/27 10:50:52;;;;;;;;;;;;;;;-140.72;100.00;52354.34;4986594;28;19926;-72
2023/09/27 10:53:17;;;;;;;;;;;;;;;-140.72;100.00;52439.56;4986619;28;19921;-73
2023/09/27 10:55:43;;;;;;;;;;;;;;;-140.72;100.00;52443.63;4987687;28;19976;-75
2023/09/27 10:58:11;;;;;;;;;;;;;;;-140.72;100.00;52340.13;4986904;28;20430;-73
2023/09/27 11:00:48;;;;;;;;;;;;;;;-140.72;100.00;52261.00;5002854;28;19925;-74
2023/09/27 11:03:17;;;;;;;;;;;;;;;-140.72;100.00;52246.78;4998434;28;19926;-74
2023/09/27 11:05:42;;;;;;;;;;;;;;;-140.72;100.00;52173.75;5006781;28;19918;-73
2023/09/27 11:08:08;;;;;;;;;;;;;;;-140.72;73.05;52194.03;5005771;28;19922;-75
2023/09/27 11:10:33;;;;;;;;;;;;;;;-140.72;31.95;52196.06;4985079;28;20020;-74
2023/09/27 11:13:12;;;;;;;;;;;;;;;-140.72;0.00;52185.94;5000148;28;19925;-73
2023/09/27 11:15:41;;;;;;;;;;;;;;;-140.72;0.00;52100.72;5000886;28;19961;-74
2023/09/27 11:18:10;;;;;;;;;;;;;;;-140.72;0.00;52074.34;5006588;28;20034;-73
2023/09/27 11:20:36;;;;;;;;;;;;;;;-140.72;0.00;52017.53;4990162;28;20354;-74
2023/09/27 11:23:02;;;;;;;;;;;;;;;-140.72;0.00;52021.56;4989358;28;19929;-73
2023/09/27 11:25:31;;;;;;;;;;;;;;;-140.72;0.00;51972.88;4992844;28;20319;-73
2023/09/27 11:27:56;;;;;;;;;;;;;;;-140.72;0.00;51978.97;4994747;28;20359;-73
2023/09/27 11:30:30;;;;;;;;;;;;;;;-140.72;0.00;52118.97;5008985;28;19980;-73
2023/09/27 11:32:56;;;;;;;;;;;;;;;-140.72;0.00;52015.50;4991200;28;19928;-73
2023/09/27 11:35:23;;;;;;;;;;;;;;;-140.72;0.00;51976.94;5009442;28;19921;-73
2023/09/27 11:37:48;;;;;;;;;;;;;;;-140.72;0.00;52023.59;4994407;28;19961;-77
2023/09/27 11:40:33;;;;;;;;;;;;;;;-140.72;0.00;51989.13;4999925;28;19922;-73
2023/09/27 11:42:58;;;;;;;;;;;;;;;-140.72;0.00;51952.59;4991872;28;19980;-74
2023/09/27 11:45:23;;;;;;;;;;;;;;;-140.72;0.00;51944.47;5008792;28;19968;-73
2023/09/27 11:47:49;;;;;;;;;;;;;;;-140.72;0.00;51883.63;4987782;28;19984;-74
2023/09/27 11:50:14;;;;;;;;;;;;;;;-140.72;0.00;51883.63;4990325;28;19937;-74
2023/09/27 11:52:42;;;;;;;;;;;;;;;-140.72;0.00;51867.38;5003197;28;19926;-75
2023/09/27 11:55:08;;;;;;;;;;;;;;;-140.72;0.00;51802.47;4992611;28;20310;-75
2023/09/27 11:57:33;;;;;;;;;;;;;;;-140.72;0.00;51767.97;4992508;28;19929;-85
2023/09/27 11:59:58;;;;;;;;;;;;;;;-140.72;0.00;51749.72;4992199;28;19926;-74
2023/09/27 12:02:23;;;;;;;;;;;;;;;-140.72;0.00;51759.84;4989874;28;20012;-73
2023/09/27 12:04:48;;;;;;;;;;;;;;;-140.72;0.00;51838.97;4992108;28;19930;-74
2023/09/27 12:07:14;;;;;;;;;;;;;;;-140.72;0.00;51838.97;4993000;28;20430;-74
2023/09/27 12:09:40;;;;;;;;;;;;;;;-140.72;0.00;51849.13;5007603;28;19922;-74
2023/09/27 12:12:06;;;;;;;;;;;;;;;-140.72;0.00;51974.91;4992040;28;19922;-74
2023/09/27 12:14:31;;;;;;;;;;;;;;;-140.72;0.00;52131.16;4995707;28;20394;-75
2023/09/27 12:16:56;;;;;;;;;;;;;;;-140.72;0.00;52025.63;4998003;28;19953;-76
2023/09/27 12:19:21;;;;;;;;;;;;;;;-140.72;0.00;51950.56;5012852;28;20295;-75
2023/09/27 12:21:46;;;;;;;;;;;;;;;-140.72;0.00;52007.38;4996532;28;19922;-76
2023/09/27 12:24:12;;;;;;;;;;;;;;;-140.72;0.00;52102.75;4992709;28;19962;-75
2023/09/27 12:26:37;;;;;;;;;;;;;;;-140.72;0.00;52171.72;5005709;28;19925;-76